Time;durP1;ratioP1;P1;durP2;ratioP2;P2;SDS_P1;SDS_P2;PMS_P1;PMS_P2;Temp;Humidity;BMP_temperature;BMP_pressure;BME280_temperature;BME280_humidity;BME280_pressure;Samples;Min_cycle;Max_cycle;Signal;HPM_P1;HPM_P2
2021/08/02 00:00:03;;;;;;;8.07;3.88;;;;;;;;;;4939012;29;20114;-70
2021/08/02 00:02:36;;;;;;;7.30;3.75;;;;;;;;;;4940967;29;20023;-70
2021/08/02 00:05:04;;;;;;;8.40;3.95;;;;;;;;;;4943390;29;20039;-71
2021/08/02 00:07:32;;;;;;;6.78;3.72;;;;;;;;;;4940515;29;20042;-71
2021/08/02 00:10:05;;;;;;;5.85;3.83;;;;;;;;;;4942454;29;20495;-66
2021/08/02 00:12:32;;;;;;;6.68;3.35;;;;;;;;;;4947488;29;20023;-66
2021/08/02 00:14:59;;;;;;;9.65;3.88;;;;;;;;;;4938614;29;20031;-66
2021/08/02 00:17:26;;;;;;;5.93;3.00;;;;;;;;;;4939510;29;20486;-69
2021/08/02 00:19:52;;;;;;;8.18;3.65;;;;;;;;;;4949850;29;20522;-70
2021/08/02 00:22:19;;;;;;;5.95;3.33;;;;;;;;;;4947273;29;20058;-71
2021/08/02 00:24:45;;;;;;;7.68;3.75;;;;;;;;;;4947282;29;20023;-69
2021/08/02 00:27:14;;;;;;;7.00;4.00;;;;;;;;;;4942797;29;20023;-66
2021/08/02 00:29:41;;;;;;;8.63;4.00;;;;;;;;;;4938950;29;20070;-72
2021/08/02 00:32:07;;;;;;;7.28;3.80;;;;;;;;;;4944104;29;20481;-72
2021/08/02 00:34:33;;;;;;;6.60;4.15;;;;;;;;;;4942955;29;20055;-70
2021/08/02 00:37:03;;;;;;;6.72;4.03;;;;;;;;;;4939788;29;20046;-71
2021/08/02 00:39:35;;;;;;;7.30;3.85;;;;;;;;;;4945690;29;20024;-70
2021/08/02 00:42:01;;;;;;;11.00;4.13;;;;;;;;;;4943349;29;20038;-72
2021/08/02 00:44:33;;;;;;;8.07;4.47;;;;;;;;;;4937430;29;20024;-65
2021/08/02 00:47:03;;;;;;;8.63;4.20;;;;;;;;;;4938665;29;20028;-71
2021/08/02 00:49:30;;;;;;;6.95;3.88;;;;;;;;;;4941897;29;20050;-73
2021/08/02 00:51:56;;;;;;;6.07;3.90;;;;;;;;;;4940029;29;20044;-70
2021/08/02 00:54:25;;;;;;;6.45;3.58;;;;;;;;;;4943476;29;20544;-71
2021/08/02 00:56:59;;;;;;;7.45;4.20;;;;;;;;;;4948445;29;20078;-64
2021/08/02 00:59:27;;;;;;;6.32;4.07;;;;;;;;;;4938259;29;20031;-65
2021/08/02 01:01:54;;;;;;;6.88;4.60;;;;;;;;;;4937256;29;20309;-63
2021/08/02 01:04:23;;;;;;;8.23;4.22;;;;;;;;;;4941268;29;20039;-72
2021/08/02 01:06:50;;;;;;;7.80;4.20;;;;;;;;;;4937805;29;20028;-71
2021/08/02 01:09:19;;;;;;;7.15;4.10;;;;;;;;;;4943831;29;20075;-67
2021/08/02 01:11:47;;;;;;;7.25;3.80;;;;;;;;;;4936625;29;20417;-65
2021/08/02 01:14:14;;;;;;;5.45;3.83;;;;;;;;;;4943684;29;20543;-65
2021/08/02 01:16:41;;;;;;;7.63;4.20;;;;;;;;;;4938810;29;20494;-67
2021/08/02 01:19:08;;;;;;;7.97;4.32;;;;;;;;;;4946476;29;20031;-68
2021/08/02 01:21:39;;;;;;;6.53;4.18;;;;;;;;;;4940827;29;20028;-67
2021/08/02 01:24:08;;;;;;;6.50;4.30;;;;;;;;;;4943909;29;20031;-71
2021/08/02 01:26:41;;;;;;;7.55;4.47;;;;;;;;;;4943370;29;20019;-69
2021/08/02 01:29:27;;;;;;;8.23;4.55;;;;;;;;;;4940024;29;20040;-69
2021/08/02 01:31:53;;;;;;;7.80;4.35;;;;;;;;;;4942916;29;20024;-68
2021/08/02 01:34:19;;;;;;;7.10;4.05;;;;;;;;;;4939755;29;20063;-66
2021/08/02 01:36:45;;;;;;;7.28;4.03;;;;;;;;;;4936521;29;20038;-67
2021/08/02 01:39:12;;;;;;;8.43;4.20;;;;;;;;;;4937171;29;20060;-72
2021/08/02 01:41:38;;;;;;;7.07;3.92;;;;;;;;;;4938306;29;20020;-65
2021/08/02 01:44:06;;;;;;;6.57;3.88;;;;;;;;;;4937002;29;20099;-67
2021/08/02 01:46:47;;;;;;;7.78;4.38;;;;;;;;;;4939598;29;20118;-71
2021/08/02 01:49:24;;;;;;;8.20;4.28;;;;;;;;;;4936013;29;20050;-67
2021/08/02 01:51:51;;;;;;;6.47;3.83;;;;;;;;;;4937045;29;20046;-66
2021/08/02 01:54:17;;;;;;;10.85;4.30;;;;;;;;;;4936064;29;20035;-65
2021/08/02 01:56:50;;;;;;;5.95;4.30;;;;;;;;;;4937273;29;20024;-66
2021/08/02 01:59:22;;;;;;;7.78;4.47;;;;;;;;;;4937857;29;20077;-68
2021/08/02 02:01:59;;;;;;;5.72;3.92;;;;;;;;;;4936746;29;20107;-75
2021/08/02 02:04:29;;;;;;;6.70;4.20;;;;;;;;;;4936256;29;20564;-64
2021/08/02 02:06:57;;;;;;;5.35;3.90;;;;;;;;;;4936736;29;20050;-69
2021/08/02 02:09:24;;;;;;;7.43;4.72;;;;;;;;;;4942896;29;20035;-65
2021/08/02 02:11:51;;;;;;;7.85;4.85;;;;;;;;;;4936218;29;20165;-64
2021/08/02 02:14:17;;;;;;;7.43;4.80;;;;;;;;;;4939726;29;20023;-74
2021/08/02 02:16:48;;;;;;;7.35;4.28;;;;;;;;;;4943669;29;20034;-72
2021/08/02 02:19:14;;;;;;;6.43;4.70;;;;;;;;;;4938423;29;20506;-70
2021/08/02 02:21:41;;;;;;;7.25;4.57;;;;;;;;;;4939684;29;20494;-74
2021/08/02 02:24:07;;;;;;;7.07;4.78;;;;;;;;;;4938230;29;20038;-64
2021/08/02 02:26:34;;;;;;;8.05;4.80;;;;;;;;;;4937258;29;20031;-73
2021/08/02 02:29:01;;;;;;;7.53;4.82;;;;;;;;;;4937603;29;20516;-73
2021/08/02 02:31:28;;;;;;;7.78;4.80;;;;;;;;;;4934978;29;20086;-65
2021/08/02 02:33:56;;;;;;;6.65;4.65;;;;;;;;;;4945063;29;20386;-67
2021/08/02 02:36:23;;;;;;;7.55;4.40;;;;;;;;;;4935030;29;20042;-71
2021/08/02 02:38:50;;;;;;;7.10;4.07;;;;;;;;;;4937833;29;20165;-64
2021/08/02 02:41:18;;;;;;;5.78;3.88;;;;;;;;;;4939779;29;20054;-74
2021/08/02 02:43:45;;;;;;;5.35;3.45;;;;;;;;;;4941494;29;20039;-64
2021/08/02 02:46:12;;;;;;;8.98;4.10;;;;;;;;;;4935451;29;20031;-71
2021/08/02 02:48:38;;;;;;;8.23;3.65;;;;;;;;;;4946416;28;20042;-71
2021/08/02 02:51:05;;;;;;;10.75;4.22;;;;;;;;;;4934726;29;20066;-68
2021/08/02 02:53:31;;;;;;;6.90;4.13;;;;;;;;;;4942245;29;20493;-70
2021/08/02 02:55:58;;;;;;;5.80;4.03;;;;;;;;;;4943435;29;20179;-64
2021/08/02 02:58:24;;;;;;;7.63;3.85;;;;;;;;;;4942509;29;20046;-64
2021/08/02 03:00:51;;;;;;;5.97;3.70;;;;;;;;;;4934840;29;20110;-64
2021/08/02 03:03:21;;;;;;;6.20;3.80;;;;;;;;;;4941556;29;20028;-73
2021/08/02 03:05:48;;;;;;;6.97;4.28;;;;;;;;;;4941309;29;20051;-73
2021/08/02 03:08:15;;;;;;;6.53;4.30;;;;;;;;;;4945419;29;20095;-69
2021/08/02 03:10:43;;;;;;;5.93;4.35;;;;;;;;;;4937906;29;20114;-69
2021/08/02 03:13:09;;;;;;;11.02;4.30;;;;;;;;;;4942686;29;20397;-69
2021/08/02 03:15:35;;;;;;;6.47;4.28;;;;;;;;;;4934390;29;20030;-65
2021/08/02 03:18:01;;;;;;;7.20;4.03;;;;;;;;;;4936718;29;20025;-69
2021/08/02 03:20:27;;;;;;;6.60;4.35;;;;;;;;;;4936435;29;20556;-71
2021/08/02 03:22:56;;;;;;;7.05;4.03;;;;;;;;;;4939618;29;20102;-65
2021/08/02 03:25:32;;;;;;;5.65;4.07;;;;;;;;;;4944981;29;20411;-65
2021/08/02 03:28:17;;;;;;;5.38;3.80;;;;;;;;;;4940251;29;20027;-72
2021/08/02 03:30:44;;;;;;;5.97;4.10;;;;;;;;;;4935049;29;20055;-67
2021/08/02 03:33:14;;;;;;;6.65;3.83;;;;;;;;;;4940010;29;20019;-70
2021/08/02 03:35:42;;;;;;;5.40;3.50;;;;;;;;;;4943325;29;20481;-69
2021/08/02 03:38:09;;;;;;;4.55;3.60;;;;;;;;;;4938502;29;20051;-69
2021/08/02 03:40:35;;;;;;;7.07;3.60;;;;;;;;;;4934822;29;20490;-78
2021/08/02 03:43:01;;;;;;;5.75;3.70;;;;;;;;;;4947173;29;20036;-70
2021/08/02 03:45:27;;;;;;;5.93;3.72;;;;;;;;;;4940279;29;20359;-75
2021/08/02 03:47:54;;;;;;;7.32;3.60;;;;;;;;;;4942560;29;20106;-67
2021/08/02 03:50:20;;;;;;;7.55;3.50;;;;;;;;;;4938214;29;20067;-65
2021/08/02 03:52:48;;;;;;;5.05;3.15;;;;;;;;;;4936967;29;20039;-67
2021/08/02 03:55:14;;;;;;;6.10;3.25;;;;;;;;;;4943176;29;20413;-67
2021/08/02 03:57:40;;;;;;;6.57;3.55;;;;;;;;;;4944027;29;20098;-67
2021/08/02 04:00:06;;;;;;;6.97;3.38;;;;;;;;;;4947871;29;20038;-64
2021/08/02 04:02:32;;;;;;;4.55;3.40;;;;;;;;;;4939139;29;20062;-65
2021/08/02 04:04:59;;;;;;;5.88;3.55;;;;;;;;;;4948343;29;20049;-69
2021/08/02 04:07:25;;;;;;;6.50;3.85;;;;;;;;;;4943265;29;20027;-69
2021/08/02 04:09:51;;;;;;;6.13;3.15;;;;;;;;;;4936344;29;20044;-67
2021/08/02 04:12:17;;;;;;;5.60;3.40;;;;;;;;;;4934609;29;20485;-68
2021/08/02 04:14:43;;;;;;;5.82;3.30;;;;;;;;;;4940344;29;20396;-69
2021/08/02 04:17:09;;;;;;;8.68;3.40;;;;;;;;;;4936105;29;20126;-70
2021/08/02 04:19:35;;;;;;;4.15;3.10;;;;;;;;;;4948641;29;20031;-65
2021/08/02 04:22:01;;;;;;;8.55;3.60;;;;;;;;;;4934249;29;20064;-67
2021/08/02 04:24:27;;;;;;;4.22;3.03;;;;;;;;;;4935656;29;20047;-65
2021/08/02 04:26:54;;;;;;;6.07;3.47;;;;;;;;;;4937701;29;20035;-67
2021/08/02 04:29:21;;;;;;;5.63;3.25;;;;;;;;;;4940891;29;20055;-62
2021/08/02 04:31:47;;;;;;;5.05;3.10;;;;;;;;;;4943533;29;20035;-67
2021/08/02 04:34:13;;;;;;;9.68;3.25;;;;;;;;;;4938553;29;20031;-78
2021/08/02 04:36:39;;;;;;;3.80;3.00;;;;;;;;;;4943875;29;20437;-72
2021/08/02 04:39:05;;;;;;;7.78;3.95;;;;;;;;;;4942987;29;20036;-63
2021/08/02 04:41:31;;;;;;;5.85;3.60;;;;;;;;;;4953090;29;20366;-66
2021/08/02 04:43:57;;;;;;;7.43;4.25;;;;;;;;;;4946613;29;20130;-64
2021/08/02 04:46:23;;;;;;;7.50;3.90;;;;;;;;;;4940773;29;20023;-63
2021/08/02 04:48:49;;;;;;;5.00;3.60;;;;;;;;;;4939383;29;20046;-64
2021/08/02 04:51:15;;;;;;;8.68;3.70;;;;;;;;;;4941488;29;20063;-63
2021/08/02 04:53:41;;;;;;;3.80;3.40;;;;;;;;;;4941682;29;20032;-69
2021/08/02 04:56:07;;;;;;;5.10;3.35;;;;;;;;;;4943022;29;20023;-69
2021/08/02 04:58:33;;;;;;;6.32;3.40;;;;;;;;;;4950367;29;20039;-63
2021/08/02 05:00:59;;;;;;;6.63;3.40;;;;;;;;;;4938071;29;20039;-64
2021/08/02 05:03:25;;;;;;;4.63;3.30;;;;;;;;;;4947223;29;20043;-66
2021/08/02 05:08:59;;;;;;;5.57;3.63;;;;;;;;;;4966682;23;20142;-63
2021/08/02 05:11:26;;;;;;;8.30;3.78;;;;;;;;;;4968931;28;20023;-64
2021/08/02 05:13:52;;;;;;;16.42;4.10;;;;;;;;;;4974454;28;20026;-73
2021/08/02 05:16:18;;;;;;;7.68;3.65;;;;;;;;;;4969863;28;20093;-70
2021/08/02 05:18:44;;;;;;;7.45;3.83;;;;;;;;;;4971196;28;20068;-71
2021/08/02 05:21:10;;;;;;;8.40;3.67;;;;;;;;;;4960419;28;20030;-70
2021/08/02 05:23:36;;;;;;;8.65;3.67;;;;;;;;;;4960634;28;20027;-67
2021/08/02 05:26:02;;;;;;;9.73;3.30;;;;;;;;;;4969612;28;20027;-67
2021/08/02 05:28:28;;;;;;;5.63;3.42;;;;;;;;;;4969692;28;20036;-69
2021/08/02 05:30:54;;;;;;;4.95;3.50;;;;;;;;;;4962563;28;20118;-72
2021/08/02 05:33:20;;;;;;;12.15;4.15;;;;;;;;;;4959890;28;20484;-68
2021/08/02 05:35:46;;;;;;;12.40;4.60;;;;;;;;;;4961266;28;20479;-67
2021/08/02 05:38:12;;;;;;;7.75;4.45;;;;;;;;;;4957411;28;20444;-69
2021/08/02 05:40:38;;;;;;;5.43;4.10;;;;;;;;;;4952711;28;20449;-64
2021/08/02 05:43:04;;;;;;;7.25;4.18;;;;;;;;;;4965258;28;20027;-65
2021/08/02 05:45:30;;;;;;;6.68;4.03;;;;;;;;;;4960954;28;20568;-62
2021/08/02 05:47:57;;;;;;;8.75;4.35;;;;;;;;;;4968277;28;20425;-81
2021/08/02 05:50:23;;;;;;;6.78;4.40;;;;;;;;;;4967177;28;20034;-62
2021/08/02 05:52:49;;;;;;;10.32;4.75;;;;;;;;;;4962898;28;20079;-65
2021/08/02 05:55:17;;;;;;;13.43;5.07;;;;;;;;;;4960383;28;20029;-64
2021/08/02 05:57:43;;;;;;;4.68;3.72;;;;;;;;;;4970145;28;20038;-64
2021/08/02 06:00:10;;;;;;;6.22;3.85;;;;;;;;;;4967096;28;20058;-63
2021/08/02 06:02:57;;;;;;;9.95;4.00;;;;;;;;;;4961671;28;20085;-89
2021/08/02 06:05:23;;;;;;;5.85;3.40;;;;;;;;;;4962209;28;20519;-77
2021/08/02 06:07:50;;;;;;;8.38;4.25;;;;;;;;;;4965962;28;20504;-81
2021/08/02 06:10:16;;;;;;;5.47;3.83;;;;;;;;;;4935908;29;20067;-86
2021/08/02 06:12:42;;;;;;;5.70;3.42;;;;;;;;;;4943051;29;20085;-69
2021/08/02 06:15:08;;;;;;;5.43;4.07;;;;;;;;;;4946334;29;20043;-68
2021/08/02 06:17:34;;;;;;;5.00;3.13;;;;;;;;;;4950862;28;20118;-90
2021/08/02 06:20:00;;;;;;;4.70;3.42;;;;;;;;;;4954211;29;20139;-77
2021/08/02 06:22:26;;;;;;;5.13;3.53;;;;;;;;;;4948155;29;20102;-83
2021/08/02 06:24:53;;;;;;;6.32;3.33;;;;;;;;;;4939439;28;20032;-80
2021/08/02 06:27:19;;;;;;;5.20;3.50;;;;;;;;;;4954032;28;20142;-77
2021/08/02 06:29:45;;;;;;;8.07;3.58;;;;;;;;;;4953198;29;20508;-89
2021/08/02 06:32:11;;;;;;;5.97;3.45;;;;;;;;;;4952023;29;20110;-68
2021/08/02 06:34:37;;;;;;;6.43;3.42;;;;;;;;;;4956832;28;20020;-63
2021/08/02 06:37:06;;;;;;;5.43;3.30;;;;;;;;;;4952874;29;20038;-64
2021/08/02 06:39:32;;;;;;;4.82;3.10;;;;;;;;;;4952394;29;20030;-70
2021/08/02 06:41:58;;;;;;;6.20;3.72;;;;;;;;;;4950204;28;20031;-66
2021/08/02 06:44:24;;;;;;;6.70;3.30;;;;;;;;;;4947340;29;20032;-64
2021/08/02 06:46:50;;;;;;;6.30;3.20;;;;;;;;;;4942913;29;20027;-69
2021/08/02 06:49:16;;;;;;;9.80;3.40;;;;;;;;;;4951354;28;20035;-62
2021/08/02 06:51:42;;;;;;;6.97;3.47;;;;;;;;;;4948843;29;20094;-64
2021/08/02 06:54:08;;;;;;;7.82;3.20;;;;;;;;;;4941380;29;20497;-64
2021/08/02 06:56:34;;;;;;;8.57;3.50;;;;;;;;;;4938278;29;20517;-67
2021/08/02 06:59:01;;;;;;;7.57;3.75;;;;;;;;;;4952550;28;20027;-62
2021/08/02 07:01:27;;;;;;;4.40;3.15;;;;;;;;;;4951723;28;20028;-69
2021/08/02 07:03:53;;;;;;;6.63;3.75;;;;;;;;;;4944876;29;20023;-69
2021/08/02 07:06:19;;;;;;;6.72;3.10;;;;;;;;;;4949306;29;20102;-70
2021/08/02 07:08:45;;;;;;;5.03;3.13;;;;;;;;;;4945030;28;20051;-67
2021/08/02 07:11:11;;;;;;;7.25;3.35;;;;;;;;;;4944147;29;20555;-70
2021/08/02 07:13:37;;;;;;;7.70;3.25;;;;;;;;;;4953952;28;20493;-69
2021/08/02 07:16:03;;;;;;;4.18;3.28;;;;;;;;;;4942672;29;20050;-69
2021/08/02 07:18:33;;;;;;;5.30;3.10;;;;;;;;;;4946319;29;20450;-67
2021/08/02 07:20:59;;;;;;;4.05;3.33;;;;;;;;;;4943716;29;20100;-68
2021/08/02 07:23:25;;;;;;;4.00;3.08;;;;;;;;;;4943583;29;20556;-71
2021/08/02 07:25:51;;;;;;;6.28;3.45;;;;;;;;;;4943819;29;20043;-66
2021/08/02 07:28:17;;;;;;;5.75;3.40;;;;;;;;;;4948927;29;20066;-66
2021/08/02 07:30:45;;;;;;;6.25;3.10;;;;;;;;;;4945387;29;20086;-66
2021/08/02 07:33:11;;;;;;;4.38;3.13;;;;;;;;;;4942871;29;20604;-68
2021/08/02 07:35:38;;;;;;;5.13;2.95;;;;;;;;;;4939853;29;20399;-68
2021/08/02 07:38:04;;;;;;;7.75;3.20;;;;;;;;;;4945162;28;20059;-65
2021/08/02 07:40:30;;;;;;;7.32;3.60;;;;;;;;;;4947453;28;20044;-63
2021/08/02 07:42:59;;;;;;;5.90;3.03;;;;;;;;;;4943283;29;20031;-66
2021/08/02 07:45:25;;;;;;;6.85;3.45;;;;;;;;;;4938635;29;20063;-69
2021/08/02 07:47:51;;;;;;;8.05;3.55;;;;;;;;;;4948409;29;20110;-64
2021/08/02 07:50:17;;;;;;;6.88;3.80;;;;;;;;;;4941391;29;20043;-67
2021/08/02 07:52:44;;;;;;;8.07;3.60;;;;;;;;;;4952739;29;20023;-63
2021/08/02 07:55:11;;;;;;;6.30;3.33;;;;;;;;;;4948954;29;20031;-72
2021/08/02 07:57:37;;;;;;;4.40;3.30;;;;;;;;;;4950412;29;20153;-67
2021/08/02 08:00:07;;;;;;;8.13;3.10;;;;;;;;;;4949767;28;20028;-74
2021/08/02 08:02:33;;;;;;;6.53;3.20;;;;;;;;;;4955775;29;20372;-69
2021/08/02 08:04:59;;;;;;;4.65;3.03;;;;;;;;;;4956667;29;20042;-66
2021/08/02 08:07:25;;;;;;;7.32;3.17;;;;;;;;;;4953299;29;20071;-66
2021/08/02 08:09:51;;;;;;;4.55;2.90;;;;;;;;;;4956574;29;20047;-68
2021/08/02 08:12:17;;;;;;;5.70;3.17;;;;;;;;;;4955374;28;20428;-66
2021/08/02 08:14:43;;;;;;;5.97;2.90;;;;;;;;;;4955058;29;20046;-69
2021/08/02 08:17:09;;;;;;;7.90;3.40;;;;;;;;;;4956008;29;20035;-70
2021/08/02 08:19:36;;;;;;;6.45;3.05;;;;;;;;;;4954711;29;20027;-67
2021/08/02 08:22:02;;;;;;;6.05;3.30;;;;;;;;;;4948003;29;20026;-74
2021/08/02 08:24:28;;;;;;;4.68;3.13;;;;;;;;;;4955826;28;20492;-76
2021/08/02 08:26:54;;;;;;;7.90;3.38;;;;;;;;;;4956307;29;20027;-68
2021/08/02 08:29:20;;;;;;;5.13;3.10;;;;;;;;;;4954769;29;20036;-72
2021/08/02 08:31:46;;;;;;;5.93;3.00;;;;;;;;;;4956135;29;20106;-79
2021/08/02 08:34:12;;;;;;;5.90;3.33;;;;;;;;;;4955979;29;20031;-72
2021/08/02 08:36:38;;;;;;;7.10;3.20;;;;;;;;;;4950269;29;20031;-70
2021/08/02 08:39:04;;;;;;;7.00;3.28;;;;;;;;;;4953037;28;20030;-72
2021/08/02 08:41:30;;;;;;;4.18;2.83;;;;;;;;;;4955464;29;20384;-70
2021/08/02 08:43:56;;;;;;;5.82;3.05;;;;;;;;;;4955643;29;20035;-66
2021/08/02 08:46:24;;;;;;;4.38;2.92;;;;;;;;;;4955433;29;20023;-67
2021/08/02 08:48:50;;;;;;;5.65;2.70;;;;;;;;;;4949561;28;20050;-66
2021/08/02 08:51:16;;;;;;;6.88;2.88;;;;;;;;;;4954315;29;20031;-67
2021/08/02 08:53:43;;;;;;;4.53;3.00;;;;;;;;;;4951483;29;20099;-65
2021/08/02 08:56:10;;;;;;;7.47;3.10;;;;;;;;;;4950598;29;20492;-64
2021/08/02 08:58:36;;;;;;;7.40;3.13;;;;;;;;;;4952381;29;20032;-66
2021/08/02 09:01:03;;;;;;;7.25;2.90;;;;;;;;;;4949220;29;20110;-68
2021/08/02 09:03:29;;;;;;;3.58;2.83;;;;;;;;;;4956075;29;20398;-66
2021/08/02 09:06:05;;;;;;;4.03;2.90;;;;;;;;;;4955170;29;20027;-68
2021/08/02 09:08:42;;;;;;;7.68;2.90;;;;;;;;;;4955315;28;20449;-80
2021/08/02 09:11:08;;;;;;;5.22;3.10;;;;;;;;;;4955156;29;20028;-74
2021/08/02 09:13:36;;;;;;;4.22;2.80;;;;;;;;;;4955018;28;20024;-68
2021/08/02 09:16:14;;;;;;;5.82;2.92;;;;;;;;;;4955166;28;20027;-73
2021/08/02 09:18:40;;;;;;;4.40;2.83;;;;;;;;;;4952300;28;20027;-68
2021/08/02 09:21:07;;;;;;;7.78;3.00;;;;;;;;;;4954842;28;20027;-67
2021/08/02 09:23:33;;;;;;;5.78;3.10;;;;;;;;;;4955136;29;20078;-67
2021/08/02 09:26:01;;;;;;;3.92;2.80;;;;;;;;;;4955412;29;20441;-68
2021/08/02 09:28:27;;;;;;;5.38;3.00;;;;;;;;;;4955304;29;20082;-74
2021/08/02 09:30:54;;;;;;;5.20;2.70;;;;;;;;;;4955643;29;20027;-70
2021/08/02 09:33:20;;;;;;;4.82;2.85;;;;;;;;;;4955077;29;20027;-66
2021/08/02 09:35:51;;;;;;;6.43;3.15;;;;;;;;;;4951937;29;20086;-71
2021/08/02 09:38:19;;;;;;;4.50;2.70;;;;;;;;;;4954943;29;20073;-69
2021/08/02 09:40:47;;;;;;;3.95;2.50;;;;;;;;;;4956495;28;20023;-77
2021/08/02 09:43:14;;;;;;;5.18;3.00;;;;;;;;;;4952423;29;20059;-67
2021/08/02 09:45:40;;;;;;;6.95;2.63;;;;;;;;;;4948042;29;20046;-76
2021/08/02 09:48:06;;;;;;;6.47;2.80;;;;;;;;;;4954673;29;20044;-66
2021/08/02 09:50:32;;;;;;;5.47;2.85;;;;;;;;;;4955213;29;20047;-65
2021/08/02 09:52:59;;;;;;;4.90;2.92;;;;;;;;;;4955042;29;20054;-65
2021/08/02 09:55:26;;;;;;;7.18;3.00;;;;;;;;;;4955282;29;20102;-73
2021/08/02 09:57:55;;;;;;;5.30;2.95;;;;;;;;;;4954348;28;20023;-82
2021/08/02 10:00:22;;;;;;;4.43;2.90;;;;;;;;;;4954770;29;20028;-72
2021/08/02 10:02:49;;;;;;;4.00;2.70;;;;;;;;;;4954732;29;20042;-71
2021/08/02 10:05:19;;;;;;;4.82;2.58;;;;;;;;;;4945165;29;20015;-74
2021/08/02 10:07:46;;;;;;;8.82;2.80;;;;;;;;;;4944294;29;20146;-70
2021/08/02 10:10:16;;;;;;;4.13;2.40;;;;;;;;;;4954738;29;20039;-71
2021/08/02 10:12:43;;;;;;;4.30;2.78;;;;;;;;;;4947284;29;20098;-73
2021/08/02 10:15:12;;;;;;;6.68;2.65;;;;;;;;;;4954114;29;20812;-73
2021/08/02 10:17:38;;;;;;;4.53;2.50;;;;;;;;;;4954032;29;20166;-70
2021/08/02 10:20:05;;;;;;;5.38;2.72;;;;;;;;;;4954406;29;20037;-72
2021/08/02 10:22:42;;;;;;;4.60;2.70;;;;;;;;;;4945377;29;20437;-70
2021/08/02 10:25:08;;;;;;;3.20;2.70;;;;;;;;;;4952918;28;20107;-75
2021/08/02 10:27:34;;;;;;;292.98;90.47;;;;;;;;;;4953702;29;20043;-73
2021/08/02 10:30:00;;;;;;;10.95;5.05;;;;;;;;;;4954277;28;20035;-66
2021/08/02 10:32:32;;;;;;;35.78;11.55;;;;;;;;;;4953211;28;20019;-65
2021/08/02 10:34:59;;;;;;;15.05;6.93;;;;;;;;;;4953120;29;20078;-75
2021/08/02 10:37:30;;;;;;;215.38;64.13;;;;;;;;;;4953245;29;20039;-69
2021/08/02 10:40:22;;;;;;;182.38;48.63;;;;;;;;;;4953413;29;20019;-69
2021/08/02 10:42:49;;;;;;;122.32;40.78;;;;;;;;;;4950872;29;20493;-68
2021/08/02 10:45:15;;;;;;;531.88;266.10;;;;;;;;;;4953466;29;20031;-65
2021/08/02 10:47:42;;;;;;;11.95;6.15;;;;;;;;;;4953339;29;20031;-65
2021/08/02 10:50:12;;;;;;;9.20;3.97;;;;;;;;;;4954013;29;20039;-81
2021/08/02 10:52:38;;;;;;;7.38;3.00;;;;;;;;;;4953490;28;20031;-76
2021/08/02 10:55:16;;;;;;;8.25;2.83;;;;;;;;;;4953363;29;20106;-73
2021/08/02 10:57:42;;;;;;;10.15;4.30;;;;;;;;;;4953523;28;20037;-70
2021/08/02 11:00:29;;;;;;;6.75;2.60;;;;;;;;;;4953530;29;20031;-72
2021/08/02 11:02:56;;;;;;;4.43;2.80;;;;;;;;;;4952845;28;20034;-69
2021/08/02 11:05:23;;;;;;;5.50;2.75;;;;;;;;;;4953853;29;20031;-73
2021/08/02 11:07:49;;;;;;;5.30;2.40;;;;;;;;;;4952600;28;20047;-79
2021/08/02 11:10:16;;;;;;;6.18;2.72;;;;;;;;;;4952489;28;20119;-80
2021/08/02 11:12:43;;;;;;;7.18;3.47;;;;;;;;;;4952537;29;20031;-71
2021/08/02 11:15:09;;;;;;;6.20;2.92;;;;;;;;;;4950272;28;20058;-71
2021/08/02 11:17:36;;;;;;;3.38;2.40;;;;;;;;;;4952866;29;20030;-78
2021/08/02 11:20:05;;;;;;;3.50;2.38;;;;;;;;;;4952940;29;20556;-76
2021/08/02 11:22:32;;;;;;;3.60;2.28;;;;;;;;;;4946223;29;20038;-79
2021/08/02 11:25:00;;;;;;;3.95;2.38;;;;;;;;;;4939530;29;20032;-81
2021/08/02 11:27:26;;;;;;;3.28;2.30;;;;;;;;;;4939304;28;20080;-74
2021/08/02 11:29:53;;;;;;;3.78;2.33;;;;;;;;;;4933890;29;20091;-88
2021/08/02 11:32:20;;;;;;;7.68;2.90;;;;;;;;;;4941742;29;20106;-75
2021/08/02 11:35:01;;;;;;;5.40;2.50;;;;;;;;;;4936181;29;20040;-71
2021/08/02 11:37:28;;;;;;;5.05;2.50;;;;;;;;;;4943098;29;20027;-70
2021/08/02 11:40:01;;;;;;;4.15;2.50;;;;;;;;;;4941746;29;20435;-72
2021/08/02 11:42:29;;;;;;;2.75;2.10;;;;;;;;;;4943149;29;20024;-70
2021/08/02 11:44:56;;;;;;;4.85;2.83;;;;;;;;;;4945066;29;20046;-86
2021/08/02 11:47:26;;;;;;;3.88;2.40;;;;;;;;;;4949958;28;20045;-85
2021/08/02 11:49:54;;;;;;;2.88;2.20;;;;;;;;;;4956832;29;20039;-70
2021/08/02 11:52:23;;;;;;;4.47;2.63;;;;;;;;;;4957071;29;20113;-71
2021/08/02 11:55:05;;;;;;;8.25;2.42;;;;;;;;;;4957124;29;20377;-67
2021/08/02 11:57:32;;;;;;;3.23;2.20;;;;;;;;;;4956354;28;20031;-72
2021/08/02 12:00:10;;;;;;;5.30;2.50;;;;;;;;;;4958097;28;20030;-64
2021/08/02 12:02:37;;;;;;;2.72;2.10;;;;;;;;;;4956547;28;20028;-63
2021/08/02 12:05:05;;;;;;;3.72;2.15;;;;;;;;;;4954953;29;20366;-63
2021/08/02 12:07:32;;;;;;;5.05;2.20;;;;;;;;;;4956929;28;20043;-64
2021/08/02 12:10:08;;;;;;;4.35;2.20;;;;;;;;;;4955592;28;20035;-67
2021/08/02 12:12:37;;;;;;;4.32;2.35;;;;;;;;;;4956359;29;20031;-71
2021/08/02 12:15:07;;;;;;;7.18;2.20;;;;;;;;;;4956546;29;20517;-71
2021/08/02 12:17:35;;;;;;;3.25;2.25;;;;;;;;;;4956306;29;20027;-66
2021/08/02 12:20:01;;;;;;;3.15;2.25;;;;;;;;;;4956834;29;20046;-70
2021/08/02 12:22:35;;;;;;;3.05;2.30;;;;;;;;;;4956412;29;20442;-67
2021/08/02 12:25:01;;;;;;;4.82;2.13;;;;;;;;;;4956634;29;20109;-65
2021/08/02 12:27:27;;;;;;;7.22;2.47;;;;;;;;;;4956217;29;20108;-65
2021/08/02 12:30:01;;;;;;;2.38;2.10;;;;;;;;;;4955882;29;20408;-66
2021/08/02 12:32:34;;;;;;;8.45;2.13;;;;;;;;;;4939024;29;20038;-63
2021/08/02 12:35:00;;;;;;;5.10;2.58;;;;;;;;;;4956281;29;20098;-67
2021/08/02 12:37:26;;;;;;;4.45;2.17;;;;;;;;;;4956053;29;20024;-75
2021/08/02 12:39:54;;;;;;;5.95;2.55;;;;;;;;;;4956109;29;20035;-65
2021/08/02 12:42:25;;;;;;;4.18;2.35;;;;;;;;;;4956838;28;20026;-67
2021/08/02 12:44:51;;;;;;;3.28;2.40;;;;;;;;;;4956236;29;20097;-66
2021/08/02 12:47:17;;;;;;;5.97;2.40;;;;;;;;;;4956012;28;20350;-70
2021/08/02 12:49:43;;;;;;;5.65;2.65;;;;;;;;;;4956856;29;20046;-67
2021/08/02 12:52:10;;;;;;;4.07;2.50;;;;;;;;;;4956422;29;20038;-70
2021/08/02 12:54:36;;;;;;;3.08;2.35;;;;;;;;;;4954995;29;20110;-70
2021/08/02 12:57:03;;;;;;;3.58;2.50;;;;;;;;;;4944784;29;20106;-68
2021/08/02 12:59:29;;;;;;;3.85;2.60;;;;;;;;;;4956045;29;20064;-72
2021/08/02 13:01:56;;;;;;;3.10;2.33;;;;;;;;;;4955934;29;20031;-69
2021/08/02 13:04:22;;;;;;;3.55;2.30;;;;;;;;;;4956651;29;20113;-72
2021/08/02 13:06:48;;;;;;;3.35;2.50;;;;;;;;;;4956131;29;20055;-70
2021/08/02 13:09:15;;;;;;;3.80;2.50;;;;;;;;;;4956038;28;20046;-72
2021/08/02 13:11:41;;;;;;;6.05;2.50;;;;;;;;;;4956082;29;20027;-68
2021/08/02 13:14:07;;;;;;;4.60;2.40;;;;;;;;;;4956084;29;20051;-70
2021/08/02 13:16:33;;;;;;;4.82;2.40;;;;;;;;;;4956612;29;20102;-69
2021/08/02 13:18:59;;;;;;;4.88;2.45;;;;;;;;;;4955589;29;20031;-69
2021/08/02 13:21:25;;;;;;;5.30;2.30;;;;;;;;;;4956235;29;20023;-70
2021/08/02 13:29:20;;;;;;;4.97;2.30;;;;;;;;;;4953170;29;20041;-71
2021/08/02 13:31:47;;;;;;;3.80;2.30;;;;;;;;;;4955393;29;20086;-70
2021/08/02 13:34:14;;;;;;;3.55;2.60;;;;;;;;;;4956004;29;20023;-69
2021/08/02 13:36:40;;;;;;;5.25;2.42;;;;;;;;;;4955621;29;20118;-67
2021/08/02 13:39:07;;;;;;;4.43;2.30;;;;;;;;;;4955464;29;20085;-69
2021/08/02 13:41:33;;;;;;;4.95;2.47;;;;;;;;;;4955630;29;20035;-70
2021/08/02 13:43:59;;;;;;;9.32;2.95;;;;;;;;;;4955692;29;20026;-69
2021/08/02 13:46:25;;;;;;;5.90;2.88;;;;;;;;;;4956195;29;20028;-70
2021/08/02 13:48:51;;;;;;;4.72;2.50;;;;;;;;;;4955806;28;20074;-70
2021/08/02 13:51:19;;;;;;;5.13;2.55;;;;;;;;;;4955437;29;20034;-70
2021/08/02 13:53:45;;;;;;;5.20;3.15;;;;;;;;;;4954774;29;20139;-67
2021/08/02 13:56:11;;;;;;;4.55;2.70;;;;;;;;;;4954957;29;20031;-70
2021/08/02 13:58:38;;;;;;;4.82;2.55;;;;;;;;;;4953737;28;20027;-70
2021/08/02 14:01:05;;;;;;;7.32;2.72;;;;;;;;;;4955063;29;20039;-70
2021/08/02 14:03:32;;;;;;;4.20;2.47;;;;;;;;;;4953009;29;20065;-71
2021/08/02 14:05:58;;;;;;;5.20;2.42;;;;;;;;;;4954959;29;20027;-71
2021/08/02 14:08:24;;;;;;;3.65;2.47;;;;;;;;;;4954004;28;20178;-73
2021/08/02 14:10:50;;;;;;;6.22;2.85;;;;;;;;;;4954430;29;20046;-67
2021/08/02 14:13:17;;;;;;;3.58;2.50;;;;;;;;;;4953980;29;20028;-68
2021/08/02 14:15:53;;;;;;;6.82;2.80;;;;;;;;;;4953016;29;20148;-80
2021/08/02 14:18:32;;;;;;;5.72;2.42;;;;;;;;;;4952842;28;20029;-68
2021/08/02 14:20:58;;;;;;;6.32;2.85;;;;;;;;;;4952895;29;20089;-69
2021/08/02 14:23:24;;;;;;;6.40;2.42;;;;;;;;;;4954264;29;20024;-72
2021/08/02 14:25:51;;;;;;;5.80;2.92;;;;;;;;;;4954231;29;20039;-78
2021/08/02 14:28:17;;;;;;;4.10;2.75;;;;;;;;;;4952006;28;20023;-69
2021/08/02 14:30:44;;;;;;;4.88;2.60;;;;;;;;;;4954418;29;20047;-71
2021/08/02 14:33:16;;;;;;;4.97;2.75;;;;;;;;;;4953305;29;20038;-70
2021/08/02 14:35:43;;;;;;;3.93;2.40;;;;;;;;;;4954383;29;20035;-71
2021/08/02 14:38:09;;;;;;;3.45;2.45;;;;;;;;;;4953472;29;20023;-85
2021/08/02 14:40:36;;;;;;;5.25;2.30;;;;;;;;;;4954135;29;20023;-79
2021/08/02 14:43:07;;;;;;;6.35;2.70;;;;;;;;;;4953587;29;20078;-73
2021/08/02 14:45:37;;;;;;;4.70;2.80;;;;;;;;;;4935350;29;20051;-83
2021/08/02 14:48:04;;;;;;;4.53;2.70;;;;;;;;;;4936112;29;20041;-80
2021/08/02 14:50:30;;;;;;;7.78;2.70;;;;;;;;;;4952811;29;20043;-73